Time;durP1;ratioP1;P1;durP2;ratioP2;P2;SDS_P1;SDS_P2;PMS_P1;PMS_P2;Temp;Humidity;BMP_temperature;BMP_pressure;BME280_temperature;BME280_humidity;BME280_pressure;Samples;Min_cycle;Max_cycle;Signal;HPM_P1;HPM_P2
2022/12/08 00:01:28;;;;;;;29.07;16.97;;;1.10;99.90;;;;;;5034122;28;20426;-87
2022/12/08 00:03:55;;;;;;;30.67;17.70;;;1.10;99.90;;;;;;5032767;28;20022;-87
2022/12/08 00:09:28;;;;;;;28.40;15.80;;;1.10;99.90;;;;;;4998267;28;20105;-87
2022/12/08 00:11:59;;;;;;;27.93;16.00;;;1.20;99.90;;;;;;5053193;28;20025;-88
2022/12/08 00:14:34;;;;;;;32.67;18.17;;;1.10;99.90;;;;;;5022963;28;20489;-87
2022/12/08 00:17:00;;;;;;;31.60;17.75;;;1.10;99.90;;;;;;5030284;28;20179;-87
2022/12/08 00:19:26;;;;;;;34.80;18.23;;;1.10;99.90;;;;;;5051797;28;20033;-87
2022/12/08 00:21:53;;;;;;;29.67;17.87;;;1.10;99.90;;;;;;5045860;28;20045;-91
2022/12/08 00:24:19;;;;;;;34.83;19.67;;;1.10;99.90;;;;;;5042093;28;20057;-89
2022/12/08 00:26:45;;;;;;;42.00;22.40;;;1.10;99.90;;;;;;5034234;28;20403;-90
2022/12/08 00:29:12;;;;;;;36.10;20.20;;;1.10;99.90;;;;;;5036215;28;20053;-90
2022/12/08 00:31:38;;;;;;;34.77;19.00;;;1.10;99.90;;;;;;5021336;28;20030;-90
2022/12/08 00:34:04;;;;;;;36.50;19.23;;;1.10;99.90;;;;;;5035404;28;20183;-90
2022/12/08 00:36:30;;;;;;;35.70;19.80;;;1.10;99.90;;;;;;5039126;28;20034;-90
2022/12/08 00:38:56;;;;;;;44.57;22.07;;;1.10;99.90;;;;;;5034677;28;20021;-90
2022/12/08 00:44:10;;;;;;;32.20;18.43;;;1.10;99.90;;;;;;5036308;28;20373;-90
2022/12/08 00:46:37;;;;;;;31.83;17.23;;;1.10;99.90;;;;;;5039424;28;20096;-90
2022/12/08 00:49:04;;;;;;;30.90;17.80;;;1.00;99.90;;;;;;5042214;28;20076;-90
2022/12/08 00:51:30;;;;;;;29.40;17.07;;;1.10;99.90;;;;;;5040272;28;21427;-90
2022/12/08 00:53:55;;;;;;;26.47;16.40;;;1.00;99.90;;;;;;5039982;28;20080;-90
2022/12/08 00:56:21;;;;;;;24.97;15.23;;;1.00;99.90;;;;;;5037442;28;20032;-90
2022/12/08 00:58:47;;;;;;;27.30;16.07;;;1.00;99.90;;;;;;5032995;28;20316;-91
2022/12/08 01:01:13;;;;;;;27.17;16.43;;;1.00;99.90;;;;;;5037250;28;20100;-91
2022/12/08 01:03:39;;;;;;;26.20;16.13;;;1.00;99.90;;;;;;5039822;28;20462;-90
2022/12/08 01:06:06;;;;;;;24.93;15.53;;;1.00;99.90;;;;;;5044912;28;20124;-91
2022/12/08 01:08:32;;;;;;;26.57;15.47;;;1.00;99.90;;;;;;5041879;28;20025;-91
2022/12/08 01:11:11;;;;;;;28.30;17.30;;;1.00;99.90;;;;;;5035020;28;20095;-90
2022/12/08 01:13:37;;;;;;;27.40;16.27;;;1.00;99.90;;;;;;5035405;28;20465;-91
2022/12/08 01:16:03;;;;;;;25.57;16.00;;;1.00;99.90;;;;;;5034517;28;20030;-91
2022/12/08 01:18:29;;;;;;;26.37;15.77;;;1.00;99.90;;;;;;5034698;28;20029;-90
2022/12/08 01:21:04;;;;;;;23.37;14.97;;;1.00;99.90;;;;;;5036348;28;20048;-90
2022/12/08 01:23:30;;;;;;;26.05;14.85;;;1.00;99.90;;;;;;5040014;28;20029;-90
2022/12/08 01:26:03;;;;;;;27.17;15.73;;;1.00;99.90;;;;;;5040606;28;20508;-90
2022/12/08 01:28:30;;;;;;;24.57;15.87;;;1.00;99.90;;;;;;5023650;28;20394;-91
2022/12/08 01:30:56;;;;;;;25.50;15.93;;;0.90;99.90;;;;;;5034595;28;20020;-90
2022/12/08 01:33:21;;;;;;;27.17;15.73;;;1.00;99.90;;;;;;5038925;28;20064;-90
2022/12/08 01:35:47;;;;;;;23.23;15.10;;;1.00;99.90;;;;;;5034576;28;20056;-90
2022/12/08 01:38:12;;;;;;;27.97;14.77;;;0.90;99.90;;;;;;5029826;28;20021;-90
2022/12/08 01:40:38;;;;;;;25.27;15.90;;;0.90;99.90;;;;;;5036305;28;20529;-91
2022/12/08 01:43:04;;;;;;;25.80;15.87;;;0.90;99.90;;;;;;5038233;28;20037;-91
2022/12/08 01:45:31;;;;;;;28.37;16.67;;;0.90;99.90;;;;;;5035165;28;20038;-90
2022/12/08 01:48:00;;;;;;;26.57;15.33;;;0.90;99.90;;;;;;5033376;28;20024;-90
2022/12/08 01:50:28;;;;;;;23.70;15.10;;;0.90;99.90;;;;;;5033446;28;20021;-90
2022/12/08 01:53:08;;;;;;;24.27;15.50;;;1.00;99.90;;;;;;5038594;28;20105;-90
2022/12/08 01:55:49;;;;;;;27.93;15.37;;;0.90;99.90;;;;;;5026179;28;20024;-90
2022/12/08 01:58:22;;;;;;;26.87;16.50;;;0.90;99.90;;;;;;5035891;28;20029;-91
2022/12/08 02:00:49;;;;;;;25.13;15.50;;;1.00;99.90;;;;;;5034838;28;20033;-91
2022/12/08 02:03:27;;;;;;;25.93;15.77;;;0.90;99.90;;;;;;5037821;28;20487;-90
2022/12/08 02:05:53;;;;;;;28.20;15.73;;;0.90;99.90;;;;;;5037545;28;20072;-90
2022/12/08 02:08:20;;;;;;;25.90;15.30;;;0.90;99.90;;;;;;5036007;28;20099;-90
2022/12/08 02:10:48;;;;;;;25.37;15.47;;;0.90;99.90;;;;;;5034551;28;20022;-90
2022/12/08 02:13:15;;;;;;;22.83;14.17;;;0.90;99.90;;;;;;5031492;28;20364;-90
2022/12/08 02:16:07;;;;;;;25.67;15.70;;;0.90;99.90;;;;;;5034466;28;20038;-90
2022/12/08 02:18:49;;;;;;;25.90;15.10;;;0.90;99.90;;;;;;5032954;28;20072;-90
2022/12/08 02:21:22;;;;;;;24.80;15.07;;;0.90;99.90;;;;;;5030803;28;20060;-90
2022/12/08 02:24:20;;;;;;;28.27;15.27;;;0.90;99.90;;;;;;5032047;28;20051;-90
2022/12/08 02:26:51;;;;;;;27.80;16.13;;;0.90;99.90;;;;;;4999882;28;20116;-90
2022/12/08 02:29:45;;;;;;;29.30;15.73;;;0.90;99.90;;;;;;5032186;28;20057;-90
2022/12/08 02:32:22;;;;;;;25.23;16.17;;;0.80;99.90;;;;;;5038671;28;20025;-90
2022/12/08 02:35:06;;;;;;;29.80;17.07;;;0.80;99.90;;;;;;5033152;28;20462;-90
2022/12/08 02:38:20;;;;;;;26.97;15.57;;;0.80;99.90;;;;;;5034537;28;20056;-90
2022/12/08 02:40:51;;;;;;;27.67;15.70;;;0.80;99.90;;;;;;5031234;28;20048;-90
2022/12/08 02:43:28;;;;;;;25.43;15.97;;;0.80;99.90;;;;;;5037891;28;20052;-90
2022/12/08 02:46:02;;;;;;;25.93;15.57;;;0.80;99.90;;;;;;5034822;28;20104;-90
2022/12/08 02:48:28;;;;;;;25.37;15.67;;;0.80;99.90;;;;;;5031993;28;20879;-90
2022/12/08 02:50:54;;;;;;;26.63;15.97;;;0.70;99.90;;;;;;5034806;28;20032;-90
2022/12/08 02:53:19;;;;;;;25.73;15.83;;;0.70;99.90;;;;;;5033199;28;20037;-90
2022/12/08 02:56:21;;;;;;;26.80;16.80;;;0.70;99.90;;;;;;5028655;28;20025;-90
2022/12/08 02:58:46;;;;;;;23.67;15.77;;;0.70;99.90;;;;;;5016569;28;20358;-85
2022/12/08 03:01:24;;;;;;;27.87;16.10;;;0.70;99.90;;;;;;5033658;28;20021;-85
2022/12/08 03:04:08;;;;;;;29.20;16.57;;;0.70;99.90;;;;;;5033620;28;20041;-85
2022/12/08 03:06:54;;;;;;;28.60;16.47;;;0.70;99.90;;;;;;5033410;28;20041;-85
2022/12/08 03:09:40;;;;;;;26.70;15.68;;;0.60;99.90;;;;;;5029620;28;20018;-90
2022/12/08 03:12:20;;;;;;;31.17;16.77;;;0.70;99.90;;;;;;5030000;28;20026;-91
2022/12/08 03:14:55;;;;;;;29.27;16.60;;;0.60;99.90;;;;;;5032219;28;20025;-90
2022/12/08 03:17:24;;;;;;;27.98;16.33;;;0.60;99.90;;;;;;5032227;28;20032;-91
2022/12/08 03:19:53;;;;;;;26.23;16.13;;;0.60;99.90;;;;;;5035307;28;20060;-90
2022/12/08 03:22:21;;;;;;;29.67;17.20;;;0.50;99.90;;;;;;5041757;28;20038;-90
2022/12/08 03:24:48;;;;;;;26.60;17.00;;;0.50;99.90;;;;;;5038353;28;20035;-90
2022/12/08 03:27:26;;;;;;;26.50;16.47;;;0.50;99.90;;;;;;5033621;28;20025;-90
2022/12/08 03:29:55;;;;;;;28.87;16.70;;;0.50;99.90;;;;;;5032152;28;20025;-90
2022/12/08 03:32:38;;;;;;;30.73;17.93;;;0.50;99.90;;;;;;5038676;28;20021;-90
2022/12/08 03:35:12;;;;;;;32.00;18.20;;;0.50;99.90;;;;;;5041218;28;20026;-85
2022/12/08 03:37:39;;;;;;;30.87;18.13;;;0.50;99.90;;;;;;5052921;28;20373;-84
2022/12/08 03:40:08;;;;;;;29.47;17.73;;;0.40;99.90;;;;;;5052973;28;20045;-85
2022/12/08 03:42:33;;;;;;;32.37;17.80;;;0.40;99.90;;;;;;5052902;28;20044;-84
2022/12/08 03:44:59;;;;;;;29.67;17.80;;;0.40;99.90;;;;;;5052865;28;20025;-85
2022/12/08 03:47:24;;;;;;;30.83;17.73;;;0.40;99.90;;;;;;5052730;28;20049;-85
2022/12/08 03:49:50;;;;;;;33.03;17.93;;;0.40;99.90;;;;;;5034292;28;20574;-85
2022/12/08 03:52:16;;;;;;;28.53;16.30;;;0.40;99.90;;;;;;5033220;28;20025;-85
2022/12/08 03:54:41;;;;;;;29.97;17.27;;;0.40;99.90;;;;;;5032940;28;20030;-85
2022/12/08 03:57:07;;;;;;;34.83;18.87;;;0.40;99.90;;;;;;5032958;28;20548;-85
2022/12/08 03:59:33;;;;;;;30.03;17.53;;;0.40;99.90;;;;;;5035730;28;20026;-85
2022/12/08 04:01:58;;;;;;;34.57;20.10;;;0.40;99.90;;;;;;5036698;28;20029;-85
2022/12/08 04:04:24;;;;;;;41.47;22.17;;;0.40;99.90;;;;;;5036601;28;20072;-85
2022/12/08 04:06:50;;;;;;;35.23;19.97;;;0.40;99.90;;;;;;5036612;28;20504;-85
2022/12/08 04:09:16;;;;;;;41.40;23.60;;;0.40;99.90;;;;;;5037096;28;20052;-85
2022/12/08 04:11:41;;;;;;;31.80;18.90;;;0.40;99.90;;;;;;5036891;28;20021;-85
2022/12/08 04:14:07;;;;;;;27.30;16.57;;;0.30;99.90;;;;;;5036690;28;20076;-84
2022/12/08 04:16:33;;;;;;;27.67;16.33;;;0.30;99.90;;;;;;5036875;28;20036;-85
2022/12/08 04:19:00;;;;;;;30.67;17.23;;;0.30;99.90;;;;;;5036573;28;20036;-85
2022/12/08 04:21:26;;;;;;;28.83;17.30;;;0.30;99.90;;;;;;5033853;28;20135;-84
2022/12/08 04:23:52;;;;;;;33.80;20.20;;;0.30;99.90;;;;;;5036290;28;20025;-85
2022/12/08 04:26:17;;;;;;;37.30;21.23;;;0.30;99.90;;;;;;5036983;28;20095;-85
2022/12/08 04:28:44;;;;;;;40.17;23.23;;;0.40;99.90;;;;;;5036990;28;20033;-85
2022/12/08 04:31:09;;;;;;;45.83;26.17;;;0.30;99.90;;;;;;5036284;28;20018;-85
2022/12/08 04:33:35;;;;;;;42.57;27.03;;;0.30;99.90;;;;;;5036309;28;20033;-85
2022/12/08 04:36:03;;;;;;;43.63;24.90;;;0.30;99.90;;;;;;5036509;28;20036;-85
2022/12/08 04:38:29;;;;;;;40.60;25.37;;;0.30;99.90;;;;;;5035993;28;20026;-84
2022/12/08 04:40:54;;;;;;;41.57;25.87;;;0.30;99.90;;;;;;5036138;28;20363;-84
2022/12/08 04:43:20;;;;;;;49.60;28.43;;;0.30;99.90;;;;;;5036405;28;20041;-85
2022/12/08 04:45:46;;;;;;;44.30;25.07;;;0.30;99.90;;;;;;5036089;28;20488;-85
2022/12/08 04:48:12;;;;;;;39.77;25.00;;;0.40;99.90;;;;;;5036382;28;20029;-84
2022/12/08 04:50:59;;;;;;;40.67;24.57;;;0.30;99.90;;;;;;5034724;28;20025;-85
2022/12/08 04:53:26;;;;;;;33.83;20.53;;;0.40;99.90;;;;;;5036088;28;20051;-85
2022/12/08 04:55:51;;;;;;;32.07;19.03;;;0.30;99.90;;;;;;5036024;28;20087;-85
2022/12/08 04:58:19;;;;;;;30.67;18.37;;;0.30;99.90;;;;;;5036240;28;20466;-84
2022/12/08 05:00:46;;;;;;;27.87;16.40;;;0.30;99.90;;;;;;5035829;28;20059;-85
2022/12/08 05:03:13;;;;;;;29.03;17.43;;;0.40;99.90;;;;;;5036050;28;20029;-85
2022/12/08 05:05:39;;;;;;;27.47;16.97;;;0.40;99.90;;;;;;5035768;28;20092;-85
2022/12/08 05:08:05;;;;;;;29.00;17.67;;;0.40;99.90;;;;;;5035713;28;20017;-84
2022/12/08 05:10:31;;;;;;;26.93;16.37;;;0.30;99.90;;;;;;5034988;28;20528;-83
2022/12/08 05:12:57;;;;;;;27.93;16.67;;;0.30;99.90;;;;;;5035755;28;20032;-84
2022/12/08 05:15:23;;;;;;;26.80;17.30;;;0.30;99.90;;;;;;5035575;28;20087;-84
2022/12/08 05:17:49;;;;;;;32.40;19.03;;;0.30;99.90;;;;;;5036205;28;20025;-84
2022/12/08 05:20:15;;;;;;;28.43;17.13;;;0.30;99.90;;;;;;5035865;28;20086;-84
2022/12/08 05:22:41;;;;;;;31.50;18.90;;;0.30;99.90;;;;;;5035828;28;20120;-85
2022/12/08 05:25:06;;;;;;;33.33;18.80;;;0.40;99.90;;;;;;5035769;28;20033;-84
2022/12/08 05:27:32;;;;;;;31.43;18.23;;;0.40;99.90;;;;;;5035955;28;20030;-90
2022/12/08 05:29:58;;;;;;;33.17;18.87;;;0.40;99.90;;;;;;5035664;28;20104;-90
2022/12/08 05:32:23;;;;;;;39.50;23.30;;;0.40;99.90;;;;;;5026036;28;20026;-90
2022/12/08 05:34:49;;;;;;;34.10;20.80;;;0.40;99.90;;;;;;5042699;28;20010;-90
2022/12/08 05:37:14;;;;;;;32.50;19.13;;;0.40;99.90;;;;;;5060397;28;20073;-89
2022/12/08 05:39:40;;;;;;;33.30;19.07;;;0.40;99.90;;;;;;5045833;28;20030;-85
2022/12/08 05:42:06;;;;;;;32.30;19.67;;;0.40;99.90;;;;;;5035176;28;20018;-84
2022/12/08 05:44:31;;;;;;;29.70;17.73;;;0.30;99.90;;;;;;5035205;28;20037;-84
2022/12/08 05:46:57;;;;;;;34.07;19.40;;;0.40;99.90;;;;;;5035188;28;20029;-84
2022/12/08 05:49:22;;;;;;;34.10;20.20;;;0.40;99.90;;;;;;5046864;28;20024;-84
2022/12/08 05:51:48;;;;;;;34.20;20.03;;;0.40;99.90;;;;;;5054350;28;20025;-84
2022/12/08 05:54:13;;;;;;;37.53;21.70;;;0.40;99.90;;;;;;5055065;28;20358;-84
2022/12/08 05:56:39;;;;;;;38.70;22.13;;;0.40;99.90;;;;;;5055121;28;20025;-85
2022/12/08 05:59:06;;;;;;;40.30;22.47;;;0.40;99.90;;;;;;5047665;28;20045;-85
2022/12/08 06:01:32;;;;;;;33.40;20.07;;;0.40;99.90;;;;;;5034793;28;20040;-85
2022/12/08 06:03:59;;;;;;;32.93;19.17;;;0.40;99.90;;;;;;5034301;28;20033;-85
2022/12/08 06:06:26;;;;;;;30.80;19.13;;;0.40;99.90;;;;;;5016973;28;20125;-85
2022/12/08 06:08:52;;;;;;;31.00;17.83;;;0.40;99.90;;;;;;5033119;28;20466;-85
2022/12/08 06:11:28;;;;;;;31.80;18.77;;;0.40;99.90;;;;;;5033824;28;20104;-87
2022/12/08 06:13:55;;;;;;;33.97;19.87;;;0.40;99.90;;;;;;5034659;28;20398;-87
2022/12/08 06:16:21;;;;;;;35.23;19.77;;;0.40;99.90;;;;;;5034832;28;20018;-87
2022/12/08 06:18:48;;;;;;;40.33;19.53;;;0.40;99.90;;;;;;5034524;28;20490;-85
2022/12/08 06:21:15;;;;;;;33.77;19.87;;;0.40;99.90;;;;;;5033690;28;20308;-85
2022/12/08 06:23:41;;;;;;;34.63;19.50;;;0.40;99.90;;;;;;5016155;28;20068;-85
2022/12/08 06:26:10;;;;;;;33.27;18.63;;;0.40;99.90;;;;;;5033679;28;20487;-85
2022/12/08 06:28:36;;;;;;;30.83;17.43;;;0.30;99.90;;;;;;5033677;28;20565;-85
2022/12/08 06:31:20;;;;;;;34.40;19.67;;;0.30;99.90;;;;;;5015391;28;20022;-85
2022/12/08 06:33:46;;;;;;;33.17;19.93;;;0.30;99.90;;;;;;5014809;28;20053;-85
2022/12/08 06:36:13;;;;;;;34.77;20.33;;;0.20;99.90;;;;;;5033538;28;20425;-86
2022/12/08 06:38:39;;;;;;;34.60;19.93;;;0.30;99.90;;;;;;5026690;28;20029;-85
2022/12/08 06:41:06;;;;;;;36.13;19.27;;;0.30;99.90;;;;;;5033697;28;20029;-85
2022/12/08 06:43:32;;;;;;;35.20;19.17;;;0.20;99.90;;;;;;5033828;28;20053;-85
2022/12/08 06:45:58;;;;;;;32.83;18.67;;;0.20;99.90;;;;;;5034411;28;20068;-86
2022/12/08 06:48:24;;;;;;;33.67;20.27;;;0.20;99.90;;;;;;5037092;28;20025;-85
2022/12/08 06:50:50;;;;;;;34.07;19.43;;;0.20;99.90;;;;;;5032750;28;20029;-85
2022/12/08 06:53:16;;;;;;;40.30;21.53;;;0.20;99.90;;;;;;5042075;28;20036;-90
2022/12/08 06:55:46;;;;;;;36.70;20.93;;;0.20;99.90;;;;;;5033216;28;20072;-90
2022/12/08 06:58:13;;;;;;;35.90;18.83;;;0.20;99.90;;;;;;5032689;28;20029;-91
2022/12/08 07:00:43;;;;;;;39.23;21.47;;;0.20;99.90;;;;;;5041979;28;20078;-90
2022/12/08 07:03:14;;;;;;;38.57;22.27;;;0.20;99.90;;;;;;5024101;28;20021;-91
2022/12/08 07:05:44;;;;;;;36.20;20.57;;;0.10;99.90;;;;;;5029512;28;20053;-91
2022/12/08 07:08:14;;;;;;;40.43;26.80;;;0.10;99.90;;;;;;5057301;28;20020;-89
2022/12/08 07:10:43;;;;;;;56.13;30.37;;;0.20;99.90;;;;;;5076872;28;20033;-90
2022/12/08 07:13:14;;;;;;;36.23;20.73;;;0.20;99.90;;;;;;5060399;28;20033;-89
2022/12/08 07:15:40;;;;;;;37.33;20.17;;;0.20;99.90;;;;;;5057807;28;20096;-89
2022/12/08 07:18:05;;;;;;;37.83;22.07;;;0.20;99.90;;;;;;5057369;28;20040;-90
2022/12/08 07:20:31;;;;;;;42.33;22.87;;;0.30;99.90;;;;;;5054050;28;20468;-88
2022/12/08 07:22:57;;;;;;;39.00;22.77;;;0.30;99.90;;;;;;5052942;28;20048;-88
2022/12/08 07:25:22;;;;;;;38.40;21.90;;;0.30;99.90;;;;;;5052798;28;20035;-90
2022/12/08 07:27:50;;;;;;;41.40;23.93;;;0.30;99.90;;;;;;5035591;28;20023;-90
2022/12/08 07:30:16;;;;;;;42.50;24.93;;;0.30;99.90;;;;;;5052810;28;20025;-91
2022/12/08 07:32:41;;;;;;;46.80;24.40;;;0.30;99.90;;;;;;5033483;28;20536;-88
2022/12/08 07:35:08;;;;;;;37.67;22.67;;;0.30;99.90;;;;;;5051390;28;20036;-88
2022/12/08 07:37:35;;;;;;;37.10;21.37;;;0.30;99.90;;;;;;5020908;28;20060;-88
2022/12/08 07:40:00;;;;;;;39.40;22.33;;;0.30;99.90;;;;;;5045417;28;20105;-87
2022/12/08 07:42:26;;;;;;;39.50;22.37;;;0.30;99.90;;;;;;5037604;28;20111;-87
2022/12/08 07:44:52;;;;;;;41.07;23.80;;;0.40;99.90;;;;;;5048770;28;20021;-90
2022/12/08 07:47:17;;;;;;;39.47;23.47;;;0.40;99.90;;;;;;5064199;28;20036;-87
2022/12/08 07:49:43;;;;;;;34.50;20.90;;;0.40;99.90;;;;;;5058757;28;20033;-87
2022/12/08 07:52:08;;;;;;;35.60;21.43;;;0.50;99.90;;;;;;5064824;28;20059;-87
2022/12/08 07:54:34;;;;;;;38.23;21.67;;;0.50;99.90;;;;;;5052201;28;20040;-87
2022/12/08 07:57:02;;;;;;;38.97;21.37;;;0.60;99.90;;;;;;5053613;28;20366;-87
2022/12/08 07:59:27;;;;;;;56.70;29.70;;;0.60;99.90;;;;;;5035142;28;20029;-87
2022/12/08 08:01:53;;;;;;;36.90;20.60;;;0.70;99.90;;;;;;5035177;28;20307;-87
2022/12/08 08:04:18;;;;;;;33.00;17.67;;;0.70;99.90;;;;;;5053154;28;20029;-87
2022/12/08 08:06:44;;;;;;;33.10;18.13;;;0.70;99.90;;;;;;5052767;28;20045;-87
2022/12/08 08:09:09;;;;;;;30.60;18.37;;;0.70;99.90;;;;;;5035082;28;20028;-87
2022/12/08 08:11:36;;;;;;;33.23;18.67;;;0.70;99.90;;;;;;5053144;28;20025;-88
2022/12/08 08:14:02;;;;;;;31.13;18.77;;;0.80;99.90;;;;;;5053616;28;20330;-87
2022/12/08 08:16:27;;;;;;;33.80;19.10;;;0.80;99.90;;;;;;5052945;28;20029;-88
2022/12/08 08:18:53;;;;;;;38.80;19.63;;;0.80;99.90;;;;;;5053011;28;20036;-88
2022/12/08 08:21:20;;;;;;;33.93;18.53;;;0.90;99.90;;;;;;5052864;28;20036;-88
2022/12/08 08:23:45;;;;;;;33.17;18.40;;;0.90;99.90;;;;;;5052695;28;20052;-88
2022/12/08 08:26:11;;;;;;;35.23;18.13;;;0.90;99.90;;;;;;5036470;28;20074;-81
2022/12/08 08:28:37;;;;;;;33.40;18.90;;;0.90;99.90;;;;;;5010624;28;20029;-77
2022/12/08 08:31:02;;;;;;;31.70;17.77;;;1.00;99.90;;;;;;5016980;28;20030;-77
2022/12/08 08:33:28;;;;;;;30.33;18.87;;;1.00;99.90;;;;;;5016670;28;20710;-78
2022/12/08 08:35:54;;;;;;;31.00;18.30;;;1.00;99.90;;;;;;5014870;28;20041;-77
2022/12/08 08:38:19;;;;;;;35.87;18.67;;;1.10;99.90;;;;;;5019918;28;20045;-77
2022/12/08 08:40:45;;;;;;;31.67;18.77;;;1.10;99.90;;;;;;5018863;28;20145;-77
2022/12/08 08:43:27;;;;;;;32.67;18.53;;;1.20;99.90;;;;;;5015750;28;20041;-77
2022/12/08 08:46:00;;;;;;;28.63;17.23;;;1.20;99.90;;;;;;5022849;28;20029;-78
2022/12/08 08:48:27;;;;;;;63.40;30.27;;;1.30;99.90;;;;;;5019211;28;20108;-77
2022/12/08 08:50:53;;;;;;;50.93;25.67;;;1.30;99.90;;;;;;5018811;28;20027;-78
2022/12/08 08:53:19;;;;;;;34.60;20.80;;;1.30;99.90;;;;;;5019127;28;20038;-77
2022/12/08 08:55:45;;;;;;;60.47;28.87;;;1.40;99.90;;;;;;5023183;28;20473;-79
2022/12/08 08:58:11;;;;;;;42.00;22.30;;;1.40;99.90;;;;;;5024877;28;20045;-82
2022/12/08 09:00:36;;;;;;;64.80;28.70;;;1.50;99.90;;;;;;5016682;28;20056;-78
2022/12/08 09:03:03;;;;;;;43.53;24.03;;;1.60;99.90;;;;;;5019142;28;20038;-78
2022/12/08 09:05:28;;;;;;;63.77;30.33;;;1.60;99.90;;;;;;5015616;28;20457;-78
2022/12/08 09:07:54;;;;;;;34.53;21.03;;;1.70;99.90;;;;;;5016933;28;20041;-78
2022/12/08 09:10:19;;;;;;;34.97;18.90;;;1.80;99.90;;;;;;5019416;28;20037;-78
2022/12/08 09:12:45;;;;;;;31.87;18.57;;;1.90;99.90;;;;;;5017679;28;21184;-78
2022/12/08 09:15:10;;;;;;;61.80;30.50;;;1.90;99.90;;;;;;4993194;28;20065;-79
2022/12/08 09:17:37;;;;;;;91.53;50.53;;;1.90;99.90;;;;;;5022390;28;20434;-79
2022/12/08 09:20:03;;;;;;;40.67;23.77;;;2.00;99.90;;;;;;5020502;28;20156;-78
2022/12/08 09:22:29;;;;;;;31.90;20.20;;;2.00;99.90;;;;;;5019420;28;20117;-79
2022/12/08 09:24:54;;;;;;;31.83;19.00;;;2.10;99.90;;;;;;5017021;28;20041;-79
2022/12/08 09:27:20;;;;;;;28.87;18.57;;;2.20;99.90;;;;;;5017502;28;20044;-82
2022/12/08 09:29:46;;;;;;;73.43;34.27;;;2.20;99.90;;;;;;4993521;28;20651;-82
2022/12/08 09:32:11;;;;;;;66.03;35.07;;;2.20;99.90;;;;;;5010801;28;20061;-82
2022/12/08 09:34:37;;;;;;;67.00;31.70;;;2.20;99.90;;;;;;5014921;28;20041;-82
2022/12/08 09:37:02;;;;;;;154.97;62.73;;;2.20;99.90;;;;;;5016607;28;20048;-78
2022/12/08 09:39:28;;;;;;;38.80;23.83;;;2.20;99.90;;;;;;5020829;28;20044;-78
2022/12/08 09:42:02;;;;;;;34.87;20.93;;;2.30;99.90;;;;;;5017257;28;22018;-78
2022/12/08 09:44:37;;;;;;;32.88;20.02;;;2.30;99.90;;;;;;5020985;28;20038;-78
2022/12/08 09:47:12;;;;;;;40.95;23.10;;;2.40;99.90;;;;;;5021586;28;20072;-78
2022/12/08 09:49:44;;;;;;;43.38;25.50;;;2.50;99.90;;;;;;5016828;28;20161;-78
2022/12/08 09:52:28;;;;;;;34.33;21.27;;;2.50;99.90;;;;;;5015714;28;20109;-78
2022/12/08 09:55:01;;;;;;;39.23;21.27;;;2.50;99.90;;;;;;5018504;28;20068;-78
2022/12/08 09:57:29;;;;;;;181.10;79.10;;;2.60;99.90;;;;;;5002374;28;20102;-82
2022/12/08 09:59:58;;;;;;;154.63;66.77;;;2.60;99.90;;;;;;5020001;28;20041;-79
2022/12/08 10:02:27;;;;;;;113.67;54.13;;;2.60;99.90;;;;;;5019588;28;20136;-81
2022/12/08 10:04:54;;;;;;;193.20;79.57;;;2.60;99.90;;;;;;5013041;28;20033;-82
2022/12/08 10:07:32;;;;;;;76.53;38.73;;;2.70;99.90;;;;;;5013587;28;20069;-82
2022/12/08 10:10:13;;;;;;;50.13;27.47;;;2.80;99.90;;;;;;5014841;28;20029;-82
2022/12/08 10:13:11;;;;;;;176.00;71.23;;;2.90;99.90;;;;;;5012895;28;20029;-82
2022/12/08 10:16:08;;;;;;;133.93;65.40;;;2.90;99.90;;;;;;5008982;28;20628;-82
2022/12/08 10:18:34;;;;;;;33.73;20.90;;;3.00;99.90;;;;;;5020605;28;20037;-82
2022/12/08 10:21:19;;;;;;;30.40;20.60;;;3.10;99.90;;;;;;5001953;28;20025;-82
2022/12/08 10:23:49;;;;;;;22.70;15.57;;;3.10;99.90;;;;;;5017464;28;20071;-82
2022/12/08 10:26:17;;;;;;;31.07;19.60;;;3.10;99.90;;;;;;5019298;28;20038;-82
2022/12/08 10:28:43;;;;;;;36.27;21.97;;;3.20;99.90;;;;;;5018238;28;20034;-82
2022/12/08 10:31:29;;;;;;;29.23;19.47;;;3.20;99.90;;;;;;5020990;28;20095;-82
2022/12/08 10:34:00;;;;;;;34.73;20.37;;;3.20;99.90;;;;;;5018163;28;20033;-82
2022/12/08 10:36:54;;;;;;;30.00;18.93;;;3.20;99.90;;;;;;5020967;28;20076;-81
2022/12/08 10:39:44;;;;;;;35.87;21.03;;;3.20;99.90;;;;;;5020345;28;20038;-82
2022/12/08 10:42:13;;;;;;;38.73;21.07;;;3.20;99.90;;;;;;5019784;28;20466;-82
2022/12/08 10:45:07;;;;;;;32.83;21.17;;;3.30;99.90;;;;;;5018762;28;20025;-82
2022/12/08 10:47:39;;;;;;;34.93;22.10;;;3.40;99.90;;;;;;5017887;28;20060;-82
2022/12/08 10:50:18;;;;;;;37.17;20.97;;;3.40;99.90;;;;;;5018937;28;20085;-82
2022/12/08 10:52:44;;;;;;;42.70;27.77;;;3.40;99.90;;;;;;5017798;28;20517;-82
2022/12/08 10:55:16;;;;;;;38.07;24.10;;;3.40;99.90;;;;;;5019848;28;20056;-82
2022/12/08 10:57:41;;;;;;;42.60;26.77;;;3.40;99.90;;;;;;5019295;28;20361;-82
2022/12/08 11:00:13;;;;;;;34.67;22.37;;;3.40;99.90;;;;;;5018977;28;20040;-82
2022/12/08 11:02:53;;;;;;;34.27;20.50;;;3.40;99.90;;;;;;5017819;28;20029;-82
2022/12/08 11:05:20;;;;;;;29.67;19.93;;;3.50;99.90;;;;;;5018413;28;20076;-82
2022/12/08 11:07:53;;;;;;;36.57;22.17;;;3.50;99.90;;;;;;5018120;28;20453;-82
2022/12/08 11:10:27;;;;;;;33.03;21.03;;;3.50;99.90;;;;;;5018111;28;20084;-82
2022/12/08 11:12:54;;;;;;;34.47;20.50;;;3.60;99.90;;;;;;5017130;28;20026;-82
2022/12/08 11:15:20;;;;;;;33.40;21.27;;;3.60;99.90;;;;;;5018718;28;20035;-82
2022/12/08 11:18:01;;;;;;;33.70;21.07;;;3.70;99.90;;;;;;5019125;28;20035;-82
2022/12/08 11:20:38;;;;;;;30.70;19.60;;;3.70;99.90;;;;;;5018791;28;20068;-82
2022/12/08 11:23:03;;;;;;;35.03;21.33;;;3.80;99.90;;;;;;5018492;28;20068;-82
2022/12/08 11:25:29;;;;;;;32.60;19.80;;;3.80;99.90;;;;;;5019467;28;20132;-82
2022/12/08 11:27:59;;;;;;;30.60;18.73;;;3.90;99.90;;;;;;5020667;28;20058;-82
2022/12/08 11:30:36;;;;;;;27.00;17.90;;;3.90;99.90;;;;;;5021689;28;20053;-82
2022/12/08 11:33:16;;;;;;;31.70;18.97;;;3.90;99.90;;;;;;5018621;28;21241;-82
2022/12/08 11:35:45;;;;;;;31.93;18.63;;;3.90;99.90;;;;;;5018344;28;20179;-82
2022/12/08 11:38:15;;;;;;;28.67;17.93;;;3.90;99.90;;;;;;5018675;28;20040;-82
2022/12/08 11:40:43;;;;;;;29.63;18.07;;;3.90;99.90;;;;;;5018246;28;21003;-82
2022/12/08 11:43:45;;;;;;;31.87;19.43;;;3.90;99.90;;;;;;5019056;28;20041;-82
2022/12/08 11:46:28;;;;;;;28.80;18.73;;;4.00;99.90;;;;;;4979138;28;20398;-82
2022/12/08 11:49:01;;;;;;;28.50;18.30;;;4.00;99.90;;;;;;5020149;28;20037;-82
2022/12/08 11:51:38;;;;;;;29.07;18.60;;;4.10;99.90;;;;;;5018938;28;20136;-82
2022/12/08 11:54:38;;;;;;;31.03;19.43;;;4.10;99.90;;;;;;5019168;28;20026;-82
2022/12/08 11:57:07;;;;;;;28.93;18.97;;;4.10;99.90;;;;;;5018917;28;20033;-82
2022/12/08 11:59:45;;;;;;;27.90;17.73;;;4.10;99.90;;;;;;5019183;28;20033;-82
2022/12/08 12:02:14;;;;;;;30.80;18.63;;;4.10;99.90;;;;;;5019836;28;20120;-82
2022/12/08 12:05:00;;;;;;;29.40;18.13;;;4.10;99.90;;;;;;5017161;28;20025;-82
2022/12/08 12:07:37;;;;;;;32.00;19.73;;;4.10;99.90;;;;;;5018432;28;20120;-82
2022/12/08 12:10:03;;;;;;;28.33;18.73;;;4.10;99.90;;;;;;5018904;28;20017;-82
2022/12/08 12:12:54;;;;;;;33.87;19.60;;;4.10;99.90;;;;;;5019436;28;20038;-82
2022/12/08 12:15:48;;;;;;;30.37;19.70;;;4.20;99.90;;;;;;5019084;28;20034;-82
2022/12/08 12:18:32;;;;;;;29.30;19.53;;;4.20;99.90;;;;;;5020270;28;20255;-80
2022/12/08 12:21:15;;;;;;;30.60;18.83;;;4.30;99.90;;;;;;5022747;28;20040;-80
2022/12/08 12:23:57;;;;;;;28.37;19.53;;;4.20;99.90;;;;;;5024799;28;20030;-79
2022/12/08 12:26:35;;;;;;;27.30;17.77;;;4.30;99.90;;;;;;5010511;28;20033;-79
2022/12/08 12:29:16;;;;;;;31.50;19.60;;;4.30;99.90;;;;;;5025078;28;20033;-79
2022/12/08 12:31:48;;;;;;;53.20;32.93;;;4.20;99.90;;;;;;5023900;28;20493;-79
2022/12/08 12:34:30;;;;;;;34.43;21.97;;;4.20;99.90;;;;;;5022737;28;20053;-82
2022/12/08 12:37:13;;;;;;;35.37;20.17;;;4.20;99.90;;;;;;5022516;28;20423;-82
2022/12/08 12:40:00;;;;;;;29.00;19.50;;;4.30;99.90;;;;;;5023205;28;20014;-82
2022/12/08 12:42:42;;;;;;;31.73;21.07;;;4.20;99.90;;;;;;5021709;28;20746;-82
2022/12/08 12:45:16;;;;;;;29.70;19.27;;;4.20;99.90;;;;;;5022116;28;20437;-82
2022/12/08 12:47:58;;;;;;;34.03;23.33;;;4.20;99.90;;;;;;5024945;28;20030;-79
2022/12/08 12:50:33;;;;;;;31.03;19.67;;;4.20;99.90;;;;;;5023380;28;20048;-83
2022/12/08 12:52:59;;;;;;;27.88;18.63;;;4.20;99.90;;;;;;5028365;28;20117;-82
2022/12/08 12:55:26;;;;;;;29.17;18.37;;;4.20;99.90;;;;;;5022557;28;20466;-82
2022/12/08 12:57:57;;;;;;;26.67;17.87;;;4.20;99.90;;;;;;5024072;28;20033;-82